Time;durP1;ratioP1;P1;durP2;ratioP2;P2;SDS_P1;SDS_P2;PMS_P1;PMS_P2;Temp;Humidity;BMP_temperature;BMP_pressure;BME280_temperature;BME280_humidity;BME280_pressure;Samples;Min_cycle;Max_cycle;Signal;HPM_P1;HPM_P2
2023/12/03 00:01:25;;;;;;;4.07;3.42;;;;;;;;;;5057159;28;20040;-65
2023/12/03 00:03:50;;;;;;;2.53;2.33;;;;;;;;;;5062570;28;20049;-66
2023/12/03 00:06:16;;;;;;;4.68;3.45;;;;;;;;;;5051313;28;20159;-65
2023/12/03 00:08:41;;;;;;;3.75;3.03;;;;;;;;;;5064088;28;20044;-65
2023/12/03 00:11:07;;;;;;;3.22;2.58;;;;;;;;;;5049162;28;20041;-65
2023/12/03 00:13:32;;;;;;;1.38;1.35;;;;;;;;;;5054515;28;20085;-65
2023/12/03 00:15:57;;;;;;;2.47;2.28;;;;;;;;;;5057903;28;20033;-65
2023/12/03 00:18:23;;;;;;;3.70;2.00;;;;;;;;;;5060195;28;20526;-65
2023/12/03 00:20:48;;;;;;;3.05;2.85;;;;;;;;;;5054887;28;20067;-65
2023/12/03 00:23:13;;;;;;;4.43;3.20;;;;;;;;;;5052970;28;20040;-66
2023/12/03 00:25:39;;;;;;;4.18;2.50;;;;;;;;;;5063531;28;20139;-65
2023/12/03 00:28:04;;;;;;;1.77;1.67;;;;;;;;;;5054054;28;20044;-65
2023/12/03 00:30:30;;;;;;;3.00;2.70;;;;;;;;;;5054356;28;20052;-65
2023/12/03 00:32:55;;;;;;;0.93;0.93;;;;;;;;;;5056597;28;20064;-65
2023/12/03 00:35:20;;;;;;;1.88;1.70;;;;;;;;;;5064914;28;20047;-66
2023/12/03 00:37:46;;;;;;;2.05;1.92;;;;;;;;;;5063236;28;20395;-65
2023/12/03 00:40:11;;;;;;;1.25;1.17;;;;;;;;;;5064017;28;20052;-64
2023/12/03 00:42:36;;;;;;;2.50;2.30;;;;;;;;;;5064938;28;20041;-65
2023/12/03 00:45:02;;;;;;;3.47;3.03;;;;;;;;;;5048292;28;20049;-65
2023/12/03 00:47:27;;;;;;;2.70;2.30;;;;;;;;;;5054746;28;20407;-64
2023/12/03 00:49:53;;;;;;;2.97;2.67;;;;;;;;;;5061546;28;20044;-65
2023/12/03 00:52:18;;;;;;;3.63;3.00;;;;;;;;;;5064847;28;20051;-65
2023/12/03 00:54:43;;;;;;;3.05;2.65;;;;;;;;;;5057792;28;20135;-65
2023/12/03 00:57:09;;;;;;;2.65;2.33;;;;;;;;;;5050098;28;20052;-66
2023/12/03 00:59:34;;;;;;;4.43;3.35;;;;;;;;;;5064899;28;20863;-66
2023/12/03 01:01:59;;;;;;;2.22;2.13;;;;;;;;;;5056239;28;20036;-65
2023/12/03 01:04:25;;;;;;;3.45;3.13;;;;;;;;;;5045414;28;20063;-65
2023/12/03 01:06:50;;;;;;;2.67;2.47;;;;;;;;;;5040142;28;20045;-65
2023/12/03 01:09:15;;;;;;;2.75;1.48;;;;;;;;;;5054553;28;20574;-65
2023/12/03 01:11:41;;;;;;;3.80;3.40;;;;;;;;;;5052272;28;20040;-66
2023/12/03 01:14:07;;;;;;;11.52;2.17;;;;;;;;;;5046104;28;20044;-66
2023/12/03 01:16:32;;;;;;;3.00;2.60;;;;;;;;;;5052178;28;20041;-66
2023/12/03 01:18:58;;;;;;;1.55;1.50;;;;;;;;;;5050324;28;20139;-66
2023/12/03 01:21:23;;;;;;;2.20;2.08;;;;;;;;;;5044109;28;20045;-66
2023/12/03 01:23:49;;;;;;;3.22;2.72;;;;;;;;;;5047278;28;20438;-66
2023/12/03 01:26:14;;;;;;;3.55;3.25;;;;;;;;;;5052984;28;20410;-66
2023/12/03 01:28:39;;;;;;;2.85;2.58;;;;;;;;;;5057127;28;20135;-66
2023/12/03 01:31:05;;;;;;;3.40;2.65;;;;;;;;;;5047947;28;20052;-66
2023/12/03 01:33:31;;;;;;;3.45;3.15;;;;;;;;;;5056052;28;20729;-66
2023/12/03 01:35:57;;;;;;;2.72;2.20;;;;;;;;;;5040459;28;20519;-65
2023/12/03 01:38:22;;;;;;;4.63;2.70;;;;;;;;;;5049183;28;20060;-64
2023/12/03 01:40:54;;;;;;;3.75;3.03;;;;;;;;;;5053214;28;20063;-65
2023/12/03 01:43:19;;;;;;;3.85;2.35;;;;;;;;;;5039873;28;20390;-66
2023/12/03 01:45:45;;;;;;;5.93;3.90;;;;;;;;;;5052435;28;20040;-66
2023/12/03 01:48:12;;;;;;;2.85;2.40;;;;;;;;;;5048149;28;20057;-65
2023/12/03 01:50:39;;;;;;;3.22;2.92;;;;;;;;;;5053529;28;20532;-67
2023/12/03 01:53:05;;;;;;;4.07;3.15;;;;;;;;;;5062620;28;20037;-66
2023/12/03 01:55:31;;;;;;;2.65;2.45;;;;;;;;;;5062855;28;20098;-66
2023/12/03 01:57:57;;;;;;;3.20;2.90;;;;;;;;;;5054011;28;20048;-67
2023/12/03 02:00:22;;;;;;;3.35;3.05;;;;;;;;;;5048133;28;20375;-67
2023/12/03 02:02:47;;;;;;;3.63;2.75;;;;;;;;;;5059828;28;20081;-66
2023/12/03 02:05:13;;;;;;;4.72;2.90;;;;;;;;;;5057887;28;20040;-66
2023/12/03 02:07:38;;;;;;;2.17;1.98;;;;;;;;;;5064425;28;20133;-66
2023/12/03 02:10:05;;;;;;;3.25;2.78;;;;;;;;;;5053241;28;20041;-66
2023/12/03 02:12:30;;;;;;;3.38;3.05;;;;;;;;;;5049374;28;20080;-66
2023/12/03 02:14:56;;;;;;;4.15;3.35;;;;;;;;;;5056386;28;20555;-66
2023/12/03 02:17:21;;;;;;;3.63;2.88;;;;;;;;;;5053877;28;20052;-66
2023/12/03 02:19:47;;;;;;;3.97;3.47;;;;;;;;;;5059065;28;20044;-66
2023/12/03 02:22:12;;;;;;;3.38;3.08;;;;;;;;;;5050318;28;20117;-66
2023/12/03 02:24:37;;;;;;;3.17;2.88;;;;;;;;;;5056228;28;20183;-66
2023/12/03 02:27:03;;;;;;;4.13;2.70;;;;;;;;;;5057801;28;20127;-66
2023/12/03 02:29:28;;;;;;;2.67;2.45;;;;;;;;;;5067130;28;20041;-66
2023/12/03 02:31:53;;;;;;;3.22;2.92;;;;;;;;;;5051544;28;20076;-66
2023/12/03 02:34:19;;;;;;;3.22;3.03;;;;;;;;;;5065011;28;20059;-64
2023/12/03 02:36:44;;;;;;;2.88;2.60;;;;;;;;;;5067742;28;20048;-64
2023/12/03 02:39:10;;;;;;;5.15;3.67;;;;;;;;;;5058729;28;20098;-65
2023/12/03 02:41:35;;;;;;;4.15;3.25;;;;;;;;;;5066814;28;20135;-65
2023/12/03 02:44:00;;;;;;;4.78;4.10;;;;;;;;;;5056558;28;20063;-65
2023/12/03 02:46:26;;;;;;;1.67;1.13;;;;;;;;;;5055456;28;20044;-65
2023/12/03 02:48:51;;;;;;;2.25;2.10;;;;;;;;;;5065884;28;20636;-63
2023/12/03 02:51:17;;;;;;;2.63;2.42;;;;;;;;;;5052644;28;20044;-66
2023/12/03 02:53:44;;;;;;;3.28;2.97;;;;;;;;;;5053025;28;20110;-66
2023/12/03 02:56:11;;;;;;;4.03;3.25;;;;;;;;;;5057754;28;20053;-67
2023/12/03 02:58:36;;;;;;;4.15;3.40;;;;;;;;;;5067056;28;20040;-66
2023/12/03 03:01:02;;;;;;;6.15;4.22;;;;;;;;;;5059188;28;20415;-66
2023/12/03 03:03:27;;;;;;;4.50;3.88;;;;;;;;;;5058761;28;20048;-66
2023/12/03 03:05:52;;;;;;;3.22;2.92;;;;;;;;;;5056913;28;20048;-66
2023/12/03 03:08:18;;;;;;;1.70;1.60;;;;;;;;;;5059650;28;20089;-67
2023/12/03 03:10:43;;;;;;;3.47;3.17;;;;;;;;;;5060940;28;20036;-67
2023/12/03 03:13:08;;;;;;;3.30;3.00;;;;;;;;;;5057004;28;20057;-65
2023/12/03 03:15:34;;;;;;;5.18;2.83;;;;;;;;;;5053938;28;20065;-66
2023/12/03 03:18:00;;;;;;;4.40;3.50;;;;;;;;;;5062235;28;20532;-67
2023/12/03 03:20:25;;;;;;;3.33;2.78;;;;;;;;;;5048510;28;20069;-66
2023/12/03 03:22:51;;;;;;;4.00;3.42;;;;;;;;;;5062190;28;20051;-67
2023/12/03 03:25:17;;;;;;;4.32;3.28;;;;;;;;;;5059040;28;20152;-66
2023/12/03 03:27:42;;;;;;;3.30;3.03;;;;;;;;;;5058493;28;20065;-67
2023/12/03 03:30:08;;;;;;;2.65;2.53;;;;;;;;;;5054317;28;20068;-67
2023/12/03 03:32:34;;;;;;;4.18;3.00;;;;;;;;;;5054855;28;20049;-67
2023/12/03 03:34:59;;;;;;;5.88;4.15;;;;;;;;;;5047192;28;20101;-67
2023/12/03 03:37:24;;;;;;;3.15;2.92;;;;;;;;;;5062303;28;20040;-67
2023/12/03 03:39:50;;;;;;;3.22;2.88;;;;;;;;;;5054343;28;20506;-67
2023/12/03 03:42:15;;;;;;;3.25;2.90;;;;;;;;;;5064144;28;20032;-67
2023/12/03 03:44:41;;;;;;;2.88;2.67;;;;;;;;;;5059520;28;20510;-68
2023/12/03 03:47:07;;;;;;;4.38;3.55;;;;;;;;;;5048779;28;20045;-67
2023/12/03 03:49:33;;;;;;;3.50;3.20;;;;;;;;;;5048287;28;20049;-67
2023/12/03 03:51:58;;;;;;;4.82;3.55;;;;;;;;;;5053237;28;20044;-67
2023/12/03 03:54:24;;;;;;;4.57;3.92;;;;;;;;;;5065595;28;20613;-67
2023/12/03 03:56:49;;;;;;;4.20;3.55;;;;;;;;;;5058130;28;20048;-67
2023/12/03 03:59:14;;;;;;;3.28;3.03;;;;;;;;;;5053804;28;20047;-67
2023/12/03 04:01:46;;;;;;;5.20;3.78;;;;;;;;;;5055128;28;20059;-67
2023/12/03 04:04:12;;;;;;;4.07;2.97;;;;;;;;;;5048778;28;20053;-66
2023/12/03 04:06:42;;;;;;;3.85;3.08;;;;;;;;;;5065638;28;20508;-67
2023/12/03 04:09:08;;;;;;;2.63;2.40;;;;;;;;;;5064252;28;20087;-66
2023/12/03 04:11:45;;;;;;;4.05;3.47;;;;;;;;;;5058266;28;20137;-66
2023/12/03 04:14:18;;;;;;;4.47;3.97;;;;;;;;;;5062762;28;20195;-65
2023/12/03 04:16:44;;;;;;;3.88;2.67;;;;;;;;;;5056174;28;20044;-66
2023/12/03 04:19:10;;;;;;;2.50;2.30;;;;;;;;;;5055149;28;20671;-66
2023/12/03 04:21:36;;;;;;;3.22;2.53;;;;;;;;;;5055165;28;20087;-66
2023/12/03 04:24:02;;;;;;;2.88;2.67;;;;;;;;;;5061078;28;20126;-66
2023/12/03 04:26:28;;;;;;;3.35;3.03;;;;;;;;;;5045928;28;20052;-66
2023/12/03 04:28:54;;;;;;;2.42;2.25;;;;;;;;;;5060127;28;20048;-66
2023/12/03 04:31:25;;;;;;;2.75;2.55;;;;;;;;;;5057797;28;20052;-66
2023/12/03 04:33:52;;;;;;;3.00;2.72;;;;;;;;;;5056459;28;20040;-70
2023/12/03 04:36:19;;;;;;;3.45;3.10;;;;;;;;;;5064177;28;20040;-66
2023/12/03 04:38:44;;;;;;;3.35;3.00;;;;;;;;;;5065304;28;20044;-67
2023/12/03 04:41:10;;;;;;;3.05;2.78;;;;;;;;;;5061784;28;20126;-67
2023/12/03 04:43:36;;;;;;;3.40;2.85;;;;;;;;;;5053387;28;20118;-67
2023/12/03 04:46:05;;;;;;;3.75;3.28;;;;;;;;;;5052065;28;20506;-67
2023/12/03 04:48:31;;;;;;;4.03;3.63;;;;;;;;;;5046094;28;20409;-66
2023/12/03 04:50:58;;;;;;;3.25;2.92;;;;;;;;;;5045839;28;20045;-67
2023/12/03 04:53:23;;;;;;;2.90;2.63;;;;;;;;;;5038781;28;20156;-67
2023/12/03 04:55:49;;;;;;;2.72;2.10;;;;;;;;;;5045523;28;20127;-67
2023/12/03 04:58:14;;;;;;;3.20;2.95;;;;;;;;;;5044975;28;20074;-67
2023/12/03 05:00:40;;;;;;;3.50;3.20;;;;;;;;;;5045868;28;20071;-67
2023/12/03 05:03:05;;;;;;;3.67;3.38;;;;;;;;;;5045107;28;20178;-67
2023/12/03 05:05:30;;;;;;;5.32;3.72;;;;;;;;;;5045474;28;20053;-66
2023/12/03 05:07:56;;;;;;;3.75;3.15;;;;;;;;;;5061463;28;20083;-67
2023/12/03 05:10:22;;;;;;;4.43;3.60;;;;;;;;;;5038420;28;20443;-67
2023/12/03 05:12:47;;;;;;;4.32;3.25;;;;;;;;;;5045598;28;20640;-67
2023/12/03 05:15:13;;;;;;;3.20;2.95;;;;;;;;;;5053251;28;20040;-66
2023/12/03 05:17:39;;;;;;;3.33;2.92;;;;;;;;;;5045246;28;20052;-66
2023/12/03 05:20:05;;;;;;;3.33;3.13;;;;;;;;;;5059508;28;20046;-66
2023/12/03 05:22:30;;;;;;;4.35;3.58;;;;;;;;;;5057169;28;20058;-66
2023/12/03 05:24:56;;;;;;;3.88;2.97;;;;;;;;;;5063265;28;20048;-65
2023/12/03 05:27:21;;;;;;;3.50;3.08;;;;;;;;;;5060890;28;20046;-65
2023/12/03 05:29:47;;;;;;;4.25;3.15;;;;;;;;;;5053154;28;20044;-65
2023/12/03 05:32:12;;;;;;;3.90;3.28;;;;;;;;;;5056254;28;20053;-64
2023/12/03 05:34:37;;;;;;;5.53;4.03;;;;;;;;;;5064522;28;20052;-66
2023/12/03 05:37:04;;;;;;;4.03;3.58;;;;;;;;;;5062217;28;20051;-67
2023/12/03 05:39:29;;;;;;;4.93;3.70;;;;;;;;;;5057117;28;20051;-64
2023/12/03 05:41:55;;;;;;;4.05;3.45;;;;;;;;;;5063271;28;20044;-65
2023/12/03 05:44:20;;;;;;;6.22;3.42;;;;;;;;;;5060609;28;20048;-66
2023/12/03 05:46:46;;;;;;;5.15;4.28;;;;;;;;;;5044122;28;20064;-66
2023/12/03 05:49:11;;;;;;;3.58;3.28;;;;;;;;;;5047987;28;20041;-66
2023/12/03 05:51:36;;;;;;;3.35;3.05;;;;;;;;;;5049866;28;20037;-67
2023/12/03 05:54:02;;;;;;;3.15;2.95;;;;;;;;;;5047848;28;20052;-66
2023/12/03 05:56:28;;;;;;;3.45;3.15;;;;;;;;;;5049541;28;20586;-66
2023/12/03 05:58:53;;;;;;;2.42;2.22;;;;;;;;;;5049381;28;20499;-66
2023/12/03 06:01:23;;;;;;;5.38;3.88;;;;;;;;;;5041437;28;20489;-65
2023/12/03 06:03:48;;;;;;;3.20;2.90;;;;;;;;;;5049070;28;20044;-66
2023/12/03 06:06:14;;;;;;;3.38;2.97;;;;;;;;;;5041336;28;22447;-66
2023/12/03 06:08:40;;;;;;;3.35;3.13;;;;;;;;;;5049385;28;20310;-67
2023/12/03 06:11:06;;;;;;;4.28;3.53;;;;;;;;;;5048350;28;20590;-66
2023/12/03 06:13:31;;;;;;;3.22;2.72;;;;;;;;;;5060196;28;20051;-66
2023/12/03 06:15:56;;;;;;;3.97;3.22;;;;;;;;;;5059527;28;20041;-66
2023/12/03 06:18:22;;;;;;;3.10;2.88;;;;;;;;;;5048801;28;20083;-65
2023/12/03 06:20:47;;;;;;;5.22;2.95;;;;;;;;;;5048799;28;20047;-66
2023/12/03 06:23:12;;;;;;;5.55;2.85;;;;;;;;;;5047570;28;20079;-66
2023/12/03 06:25:38;;;;;;;5.25;2.40;;;;;;;;;;5039808;28;20069;-65
2023/12/03 06:28:03;;;;;;;3.15;2.80;;;;;;;;;;5043231;28;20087;-66
2023/12/03 06:30:29;;;;;;;3.42;3.13;;;;;;;;;;5048948;28;20071;-66
2023/12/03 06:32:55;;;;;;;4.03;3.38;;;;;;;;;;5038694;28;20043;-66
2023/12/03 06:35:20;;;;;;;4.80;3.53;;;;;;;;;;5041470;28;20045;-67
2023/12/03 06:37:45;;;;;;;2.70;2.50;;;;;;;;;;5048627;28;20131;-66
2023/12/03 06:40:11;;;;;;;4.05;3.10;;;;;;;;;;5046739;28;21595;-66
2023/12/03 06:42:37;;;;;;;3.78;3.28;;;;;;;;;;5047912;28;20033;-66
2023/12/03 06:45:02;;;;;;;3.95;3.10;;;;;;;;;;5047453;28;20044;-65
2023/12/03 06:47:28;;;;;;;4.10;3.70;;;;;;;;;;5048192;28;20045;-65
2023/12/03 06:49:53;;;;;;;3.45;3.15;;;;;;;;;;5079602;28;20040;-66
2023/12/03 06:52:19;;;;;;;4.60;3.42;;;;;;;;;;5085557;28;20106;-66
2023/12/03 06:54:44;;;;;;;3.05;2.65;;;;;;;;;;5061709;28;20150;-67
2023/12/03 06:57:09;;;;;;;4.93;4.35;;;;;;;;;;5048898;28;20258;-66
2023/12/03 06:59:35;;;;;;;7.45;3.65;;;;;;;;;;5060545;28;20470;-66
2023/12/03 07:02:00;;;;;;;7.03;4.90;;;;;;;;;;5051406;28;20052;-68
2023/12/03 07:04:25;;;;;;;3.72;3.15;;;;;;;;;;5062972;28;20051;-67
2023/12/03 07:06:51;;;;;;;4.82;3.60;;;;;;;;;;5060383;28;20045;-67
2023/12/03 07:09:16;;;;;;;3.97;3.38;;;;;;;;;;5063395;28;20042;-68
2023/12/03 07:11:41;;;;;;;4.18;3.40;;;;;;;;;;5057339;28;20064;-67
2023/12/03 07:14:07;;;;;;;4.30;2.83;;;;;;;;;;5043480;28;20129;-66
2023/12/03 07:16:32;;;;;;;3.47;3.17;;;;;;;;;;5062932;28;20506;-66
2023/12/03 07:18:57;;;;;;;3.35;3.05;;;;;;;;;;5051799;28;20094;-66
2023/12/03 07:21:23;;;;;;;3.05;2.80;;;;;;;;;;5047460;28;20049;-67
2023/12/03 07:23:48;;;;;;;3.80;3.40;;;;;;;;;;5044986;28;20036;-66
2023/12/03 07:26:14;;;;;;;3.70;3.05;;;;;;;;;;5046070;28;20106;-66
2023/12/03 07:28:41;;;;;;;5.50;4.18;;;;;;;;;;5035944;28;20052;-67
2023/12/03 07:31:07;;;;;;;3.38;3.03;;;;;;;;;;5037592;28;20044;-67
2023/12/03 07:33:33;;;;;;;3.17;2.65;;;;;;;;;;5037371;28;20060;-67
2023/12/03 07:35:58;;;;;;;3.65;2.97;;;;;;;;;;5039109;28;20088;-67
2023/12/03 07:38:24;;;;;;;5.93;4.30;;;;;;;;;;5048486;28;20095;-68
2023/12/03 07:40:49;;;;;;;4.75;4.25;;;;;;;;;;5061854;28;20044;-67
2023/12/03 07:43:14;;;;;;;3.60;2.70;;;;;;;;;;5060793;28;20511;-67
2023/12/03 07:45:40;;;;;;;4.65;3.50;;;;;;;;;;5065409;28;20044;-67
2023/12/03 07:48:05;;;;;;;3.25;2.95;;;;;;;;;;5066563;28;20133;-68
2023/12/03 07:50:31;;;;;;;3.92;3.65;;;;;;;;;;5067065;28;20040;-67
2023/12/03 07:52:56;;;;;;;5.93;4.47;;;;;;;;;;5067837;28;20045;-67
2023/12/03 07:55:22;;;;;;;5.93;4.93;;;;;;;;;;5070935;28;20043;-67
2023/12/03 07:57:49;;;;;;;11.85;5.75;;;;;;;;;;5070729;28;20047;-67
2023/12/03 08:00:15;;;;;;;9.10;5.75;;;;;;;;;;5080193;28;20062;-67
2023/12/03 08:02:42;;;;;;;8.30;4.45;;;;;;;;;;5069103;28;20445;-67
2023/12/03 08:05:08;;;;;;;7.82;5.45;;;;;;;;;;5074630;28;20556;-67
2023/12/03 08:07:34;;;;;;;8.25;4.75;;;;;;;;;;5051149;28;20044;-67
2023/12/03 08:09:59;;;;;;;6.65;4.05;;;;;;;;;;5080196;28;20055;-67
2023/12/03 08:12:25;;;;;;;8.57;6.10;;;;;;;;;;5072125;28;20058;-67
2023/12/03 08:14:50;;;;;;;6.28;4.97;;;;;;;;;;5079157;28;20085;-68
2023/12/03 08:17:15;;;;;;;10.20;4.90;;;;;;;;;;5053025;28;20040;-67
2023/12/03 08:19:41;;;;;;;6.95;3.67;;;;;;;;;;5044463;28;20640;-68
2023/12/03 08:22:09;;;;;;;10.85;4.40;;;;;;;;;;5043234;28;20080;-68
2023/12/03 08:24:34;;;;;;;5.80;5.05;;;;;;;;;;5043669;28;20485;-68
2023/12/03 08:27:00;;;;;;;7.45;5.20;;;;;;;;;;5043419;28;20051;-68
2023/12/03 08:29:26;;;;;;;11.70;6.82;;;;;;;;;;5044219;28;20048;-67
2023/12/03 08:31:51;;;;;;;8.45;5.72;;;;;;;;;;5022850;28;20520;-68
2023/12/03 08:34:17;;;;;;;11.55;6.13;;;;;;;;;;5030322;28;20057;-67
2023/12/03 08:36:43;;;;;;;12.88;7.22;;;;;;;;;;5028281;28;20048;-67
2023/12/03 08:39:09;;;;;;;7.07;5.28;;;;;;;;;;5020432;28;20055;-67
2023/12/03 08:41:37;;;;;;;8.65;6.13;;;;;;;;;;5024386;28;20151;-67
2023/12/03 08:44:03;;;;;;;9.82;6.85;;;;;;;;;;5023822;28;21110;-67
2023/12/03 08:46:29;;;;;;;9.63;7.13;;;;;;;;;;5025991;28;20512;-67
2023/12/03 08:48:55;;;;;;;13.40;8.32;;;;;;;;;;5025695;28;20609;-67
2023/12/03 08:51:21;;;;;;;14.52;8.23;;;;;;;;;;5018448;28;20057;-68
2023/12/03 08:53:47;;;;;;;11.00;7.50;;;;;;;;;;5024164;28;20052;-68
2023/12/03 08:56:12;;;;;;;15.02;6.88;;;;;;;;;;5020320;28;22359;-68
2023/12/03 08:58:41;;;;;;;10.90;7.30;;;;;;;;;;5042835;28;20703;-67
2023/12/03 09:01:07;;;;;;;9.73;5.93;;;;;;;;;;5056457;28;20049;-66
2023/12/03 09:03:37;;;;;;;10.32;7.15;;;;;;;;;;5048561;28;20099;-67
2023/12/03 09:06:03;;;;;;;11.65;6.50;;;;;;;;;;5005188;28;20059;-68
2023/12/03 09:08:29;;;;;;;8.10;5.93;;;;;;;;;;5036213;28;20755;-66
2023/12/03 09:10:54;;;;;;;9.80;5.63;;;;;;;;;;5034523;28;20103;-71
2023/12/03 09:13:20;;;;;;;10.35;6.18;;;;;;;;;;5019173;28;20084;-68
2023/12/03 09:15:46;;;;;;;8.57;6.03;;;;;;;;;;5000788;28;20109;-69
2023/12/03 09:18:11;;;;;;;9.38;6.55;;;;;;;;;;5018730;28;20407;-68
2023/12/03 09:20:37;;;;;;;8.10;6.13;;;;;;;;;;5022397;28;20069;-69
2023/12/03 09:23:02;;;;;;;12.10;6.88;;;;;;;;;;5023312;28;20048;-70
2023/12/03 09:25:27;;;;;;;7.40;5.47;;;;;;;;;;5022242;28;20049;-70
2023/12/03 09:27:53;;;;;;;8.18;5.82;;;;;;;;;;5022627;28;20065;-70
2023/12/03 09:30:18;;;;;;;9.90;6.13;;;;;;;;;;5021207;28;20738;-69
2023/12/03 09:32:44;;;;;;;8.23;5.70;;;;;;;;;;5028520;28;20053;-69
2023/12/03 09:35:11;;;;;;;8.30;5.88;;;;;;;;;;5039123;28;20041;-69
2023/12/03 09:37:36;;;;;;;8.98;5.65;;;;;;;;;;5038097;28;20044;-71
2023/12/03 09:40:03;;;;;;;7.70;6.05;;;;;;;;;;5040055;28;20041;-69
2023/12/03 09:42:30;;;;;;;9.07;5.82;;;;;;;;;;5041756;28;20040;-70
2023/12/03 09:45:09;;;;;;;10.80;7.10;;;;;;;;;;5041793;28;20072;-67
2023/12/03 09:47:37;;;;;;;12.55;7.90;;;;;;;;;;5038349;28;20609;-68
2023/12/03 09:50:04;;;;;;;12.30;7.43;;;;;;;;;;5037573;28;20060;-67
2023/12/03 09:52:35;;;;;;;9.10;6.43;;;;;;;;;;5036497;28;20117;-69
2023/12/03 09:55:02;;;;;;;9.13;6.95;;;;;;;;;;5047607;28;20048;-70
2023/12/03 09:57:29;;;;;;;9.07;6.18;;;;;;;;;;5046979;28;20099;-69
2023/12/03 10:00:00;;;;;;;7.70;6.10;;;;;;;;;;5046418;28;20055;-68
2023/12/03 10:02:28;;;;;;;7.70;5.88;;;;;;;;;;5038484;28;20922;-71
2023/12/03 10:04:56;;;;;;;7.35;5.68;;;;;;;;;;5036411;28;20684;-69
2023/12/03 10:07:26;;;;;;;7.68;5.63;;;;;;;;;;5040220;28;20044;-68
2023/12/03 10:09:52;;;;;;;7.40;5.20;;;;;;;;;;5046511;28;20045;-71
2023/12/03 10:12:21;;;;;;;7.68;5.30;;;;;;;;;;5036207;28;20049;-67
2023/12/03 10:14:46;;;;;;;9.50;5.50;;;;;;;;;;5040039;28;20092;-70
2023/12/03 10:17:19;;;;;;;7.15;5.47;;;;;;;;;;5030006;28;20120;-68
2023/12/03 10:19:45;;;;;;;9.38;6.65;;;;;;;;;;5023909;28;20114;-68
2023/12/03 10:22:11;;;;;;;10.00;6.25;;;;;;;;;;5039393;28;20556;-70
2023/12/03 10:24:48;;;;;;;10.18;6.20;;;;;;;;;;5034723;28;20044;-70
2023/12/03 10:27:13;;;;;;;7.78;5.18;;;;;;;;;;5026066;28;20044;-69
2023/12/03 10:29:38;;;;;;;7.38;5.43;;;;;;;;;;5036463;28;20036;-70
2023/12/03 10:32:06;;;;;;;7.75;5.47;;;;;;;;;;5023606;28;20930;-69
2023/12/03 10:34:32;;;;;;;9.45;5.93;;;;;;;;;;5023622;28;20068;-70
2023/12/03 10:36:59;;;;;;;8.88;6.00;;;;;;;;;;5029054;28;20194;-66
2023/12/03 10:39:25;;;;;;;7.55;5.63;;;;;;;;;;5041561;28;20084;-71
2023/12/03 10:41:50;;;;;;;9.68;6.57;;;;;;;;;;5039037;28;20515;-68
2023/12/03 10:44:23;;;;;;;11.63;7.15;;;;;;;;;;5022716;28;20136;-67
2023/12/03 10:46:49;;;;;;;10.38;6.78;;;;;;;;;;5028464;28;20048;-70
2023/12/03 10:49:15;;;;;;;14.27;6.30;;;;;;;;;;5038108;28;20052;-71
2023/12/03 10:51:42;;;;;;;8.93;6.25;;;;;;;;;;5043181;28;20403;-69
2023/12/03 10:54:09;;;;;;;13.20;5.45;;;;;;;;;;5038443;28;20118;-72
2023/12/03 10:56:35;;;;;;;7.20;5.15;;;;;;;;;;5037669;28;20041;-68
2023/12/03 10:59:03;;;;;;;5.25;4.40;;;;;;;;;;5041956;28;20106;-68
2023/12/03 11:01:30;;;;;;;5.65;4.65;;;;;;;;;;5045629;28;20774;-71
2023/12/03 11:04:08;;;;;;;6.50;4.97;;;;;;;;;;5035992;28;20122;-70
2023/12/03 11:06:34;;;;;;;7.55;5.25;;;;;;;;;;5033874;28;21843;-70
2023/12/03 11:09:01;;;;;;;7.97;5.55;;;;;;;;;;5040581;28;20055;-69
2023/12/03 11:11:27;;;;;;;9.57;5.55;;;;;;;;;;5039353;28;20049;-68
2023/12/03 11:13:56;;;;;;;7.45;5.25;;;;;;;;;;5036770;28;20083;-70
2023/12/03 11:16:25;;;;;;;8.13;5.40;;;;;;;;;;5055159;28;20148;-72
2023/12/03 11:19:17;;;;;;;7.93;5.60;;;;;;;;;;5054027;28;20049;-68
2023/12/03 11:22:11;;;;;;;11.47;6.37;;;;;;;;;;5056900;28;20044;-71
2023/12/03 11:24:46;;;;;;;10.23;6.32;;;;;;;;;;5046406;28;20083;-70
2023/12/03 11:27:16;;;;;;;9.82;6.15;;;;;;;;;;5059586;28;20106;-67
2023/12/03 11:29:50;;;;;;;8.82;5.95;;;;;;;;;;5060036;28;20105;-70
2023/12/03 11:32:17;;;;;;;9.20;6.15;;;;;;;;;;5002358;28;20080;-69
2023/12/03 11:34:59;;;;;;;10.45;6.82;;;;;;;;;;5013365;28;20033;-69
2023/12/03 11:37:29;;;;;;;;;;;;;;;;;;5037237;28;20041;-70
2023/12/03 11:39:56;;;;;;;11.95;6.75;;;;;;;;;;5038479;28;19929;-67
2023/12/03 11:42:23;;;;;;;8.75;6.43;;;;;;;;;;5028748;28;20186;-69
2023/12/03 11:44:49;;;;;;;9.25;6.40;;;;;;;;;;5035002;28;20048;-71
2023/12/03 11:47:15;;;;;;;9.15;6.47;;;;;;;;;;5034241;28;20049;-69
2023/12/03 11:49:41;;;;;;;10.45;7.05;;;;;;;;;;5035630;28;21218;-69
2023/12/03 11:52:18;;;;;;;10.32;6.57;;;;;;;;;;5024918;28;20041;-70
2023/12/03 11:55:05;;;;;;;13.63;6.85;;;;;;;;;;5033287;28;20127;-71
2023/12/03 11:57:37;;;;;;;9.68;6.35;;;;;;;;;;5021234;28;20056;-68
2023/12/03 12:00:12;;;;;;;13.60;7.32;;;;;;;;;;5034193;28;20040;-70
2023/12/03 12:02:38;;;;;;;10.57;6.97;;;;;;;;;;5036725;28;20040;-71
2023/12/03 12:05:07;;;;;;;9.38;6.50;;;;;;;;;;5036382;28;20048;-70
2023/12/03 12:07:35;;;;;;;11.05;7.03;;;;;;;;;;5032006;28;20051;-72
2023/12/03 12:10:01;;;;;;;8.40;5.82;;;;;;;;;;5037453;28;20119;-71
2023/12/03 12:12:39;;;;;;;10.43;6.47;;;;;;;;;;4990186;28;20052;-68
2023/12/03 12:15:06;;;;;;;11.05;5.88;;;;;;;;;;5028678;28;20308;-70
2023/12/03 12:17:34;;;;;;;9.55;6.28;;;;;;;;;;5031917;28;20124;-70
2023/12/03 12:20:03;;;;;;;9.55;5.72;;;;;;;;;;5011950;28;20047;-67
2023/12/03 12:22:37;;;;;;;7.53;5.00;;;;;;;;;;5016706;28;20130;-68
2023/12/03 12:25:07;;;;;;;6.53;4.70;;;;;;;;;;5031901;28;20048;-66
2023/12/03 12:27:36;;;;;;;9.82;5.55;;;;;;;;;;5031068;28;20099;-68
2023/12/03 12:30:13;;;;;;;6.80;4.40;;;;;;;;;;5035117;28;20051;-71
2023/12/03 12:32:55;;;;;;;5.80;4.50;;;;;;;;;;5033131;28;20076;-69
2023/12/03 12:35:28;;;;;;;6.45;4.50;;;;;;;;;;5036655;28;20048;-68
2023/12/03 12:38:12;;;;;;;9.15;5.45;;;;;;;;;;5027530;28;20090;-70
2023/12/03 12:40:51;;;;;;;7.82;5.88;;;;;;;;;;5033804;28;20127;-68
2023/12/03 12:44:20;;;;;;;11.50;6.40;;;;;;;;;;5046403;28;20059;-65
2023/12/03 12:47:02;;;;;;;10.02;5.60;;;;;;;;;;4966924;28;20047;-65
2023/12/03 12:49:29;;;;;;;8.60;5.82;;;;;;;;;;4955435;28;20047;-68
2023/12/03 12:52:24;;;;;;;6.90;4.85;;;;;;;;;;5004491;28;20068;-70
2023/12/03 12:55:11;;;;;;;6.60;4.60;;;;;;;;;;5057077;28;20040;-69
2023/12/03 12:57:40;;;;;;;8.77;5.30;;;;;;;;;;5018676;28;20047;-71
2023/12/03 13:00:17;;;;;;;6.53;4.65;;;;;;;;;;5014808;28;20047;-70
2023/12/03 13:02:58;;;;;;;10.35;5.47;;;;;;;;;;5037343;28;20110;-68
2023/12/03 13:05:26;;;;;;;7.18;4.18;;;;;;;;;;5032529;28;20049;-70
2023/12/03 13:08:03;;;;;;;6.13;3.90;;;;;;;;;;5037834;28;20045;-71
2023/12/03 13:10:34;;;;;;;8.02;5.63;;;;;;;;;;5025398;28;20049;-70
2023/12/03 13:13:00;;;;;;;8.73;5.38;;;;;;;;;;5027474;28;20132;-70
2023/12/03 13:15:27;;;;;;;8.30;5.25;;;;;;;;;;5037543;28;20115;-71
2023/12/03 13:18:00;;;;;;;7.70;5.68;;;;;;;;;;5037987;28;20562;-70
2023/12/03 13:20:37;;;;;;;7.97;5.40;;;;;;;;;;5041663;28;20056;-67
2023/12/03 13:23:03;;;;;;;11.30;7.07;;;;;;;;;;5047500;28;20144;-67
2023/12/03 13:25:32;;;;;;;7.70;5.63;;;;;;;;;;5050172;28;20052;-66
2023/12/03 13:28:00;;;;;;;9.48;5.75;;;;;;;;;;5048957;28;20055;-68
2023/12/03 13:30:29;;;;;;;11.63;6.40;;;;;;;;;;5035187;28;20036;-67
2023/12/03 13:33:00;;;;;;;8.98;6.20;;;;;;;;;;5035106;28;20116;-67
2023/12/03 13:35:27;;;;;;;10.85;6.85;;;;;;;;;;5025712;28;20037;-72
2023/12/03 13:38:01;;;;;;;9.15;6.50;;;;;;;;;;5036597;28;20518;-70
2023/12/03 13:40:31;;;;;;;11.77;7.10;;;;;;;;;;5034690;28;20729;-69
2023/12/03 13:43:00;;;;;;;9.33;6.50;;;;;;;;;;5035516;28;20037;-69
2023/12/03 13:45:26;;;;;;;10.20;6.25;;;;;;;;;;5030637;28;20454;-70
2023/12/03 13:47:52;;;;;;;7.78;4.70;;;;;;;;;;5019779;28;20056;-68
2023/12/03 13:50:20;;;;;;;7.82;4.95;;;;;;;;;;5031067;28;20049;-69
2023/12/03 13:52:50;;;;;;;6.95;4.93;;;;;;;;;;5023652;28;20133;-71
2023/12/03 13:55:17;;;;;;;11.43;4.72;;;;;;;;;;5024573;28;20045;-69
2023/12/03 13:57:43;;;;;;;8.18;5.10;;;;;;;;;;5030005;28;20055;-70
2023/12/03 14:00:16;;;;;;;6.70;4.70;;;;;;;;;;5016180;28;20057;-68
2023/12/03 14:02:46;;;;;;;9.02;5.32;;;;;;;;;;5040418;28;20052;-68
2023/12/03 14:05:24;;;;;;;5.85;4.43;;;;;;;;;;5054554;28;20414;-69
2023/12/03 14:08:02;;;;;;;7.95;4.75;;;;;;;;;;5049176;28;20046;-69
2023/12/03 14:10:36;;;;;;;6.72;4.72;;;;;;;;;;5050600;28;20099;-70
2023/12/03 14:13:02;;;;;;;6.90;4.88;;;;;;;;;;5059629;28;20122;-67
2023/12/03 14:15:29;;;;;;;9.48;5.55;;;;;;;;;;5056727;28;20075;-68
2023/12/03 14:17:58;;;;;;;8.82;5.45;;;;;;;;;;5058868;28;20127;-69
2023/12/03 14:20:32;;;;;;;6.55;5.00;;;;;;;;;;5039033;28;20050;-69
2023/12/03 14:22:58;;;;;;;8.95;5.63;;;;;;;;;;5058801;28;20066;-68
2023/12/03 14:25:28;;;;;;;10.30;6.32;;;;;;;;;;5048101;28;20518;-67
2023/12/03 14:27:59;;;;;;;8.23;5.45;;;;;;;;;;5058591;28;20124;-66
2023/12/03 14:30:27;;;;;;;7.40;5.20;;;;;;;;;;5020984;28;20044;-69
2023/12/03 14:32:53;;;;;;;7.88;5.30;;;;;;;;;;5059208;28;20150;-67
2023/12/03 14:35:19;;;;;;;6.82;4.50;;;;;;;;;;5049897;28;20129;-68
2023/12/03 14:37:47;;;;;;;6.18;4.88;;;;;;;;;;5047973;28;20041;-67
2023/12/03 14:40:19;;;;;;;9.18;5.00;;;;;;;;;;5037604;28;20067;-67
2023/12/03 14:42:45;;;;;;;6.45;4.68;;;;;;;;;;5040517;28;20033;-68